createdAt,value
2022-08-19T00:02:04.225Z,19.20
2022-08-19T00:04:35.825Z,19.90
2022-08-19T00:07:05.019Z,20.80
2022-08-19T00:09:32.016Z,19.10
2022-08-19T00:11:59.664Z,19.43
2022-08-19T00:14:27.709Z,20.53
2022-08-19T00:16:55.733Z,21.37
2022-08-19T00:19:24.255Z,18.90
2022-08-19T00:21:52.560Z,20.27
2022-08-19T00:24:20.238Z,21.80
2022-08-19T00:26:48.116Z,18.97
2022-08-19T00:29:18.245Z,21.27
2022-08-19T00:31:46.643Z,20.60
2022-08-19T00:34:14.706Z,20.40
2022-08-19T00:36:43.163Z,20.63
2022-08-19T00:39:10.851Z,20.00
2022-08-19T00:41:38.306Z,21.47
2022-08-19T00:44:26.894Z,20.90
2022-08-19T00:46:58.250Z,21.17
2022-08-19T00:49:28.901Z,22.70
2022-08-19T00:52:05.333Z,21.17
2022-08-19T00:54:34.113Z,23.37
2022-08-19T00:57:05.582Z,22.70
2022-08-19T01:00:00.906Z,23.90
2022-08-19T01:02:20.959Z,20.80
2022-08-19T01:04:48.086Z,24.10
2022-08-19T01:07:19.523Z,24.07
2022-08-19T01:09:47.182Z,23.20
2022-08-19T01:12:14.508Z,24.53
2022-08-19T01:14:42.258Z,24.57
2022-08-19T01:17:11.038Z,24.33
2022-08-19T01:19:44.319Z,20.57
2022-08-19T01:22:27.720Z,23.77
2022-08-19T01:24:58.166Z,24.70
2022-08-19T01:27:26.690Z,25.20
2022-08-19T01:29:56.989Z,22.53
2022-08-19T01:32:33.551Z,25.13
2022-08-19T01:35:02.895Z,25.03
2022-08-19T01:37:31.405Z,23.27
2022-08-19T01:39:58.944Z,23.30
2022-08-19T01:42:30.522Z,24.43
2022-08-19T01:44:58.506Z,28.07
2022-08-19T01:47:25.527Z,26.23
2022-08-19T01:49:52.638Z,22.80
2022-08-19T01:52:20.551Z,26.23
2022-08-19T01:54:47.529Z,24.97
2022-08-19T01:57:15.447Z,23.77
2022-08-19T01:59:44.786Z,24.53
2022-08-19T02:02:11.960Z,26.50
2022-08-19T02:04:39.546Z,26.23
2022-08-19T02:07:09.114Z,24.13
2022-08-19T02:09:36.587Z,25.20
2022-08-19T02:12:04.870Z,22.87
2022-08-19T02:14:31.872Z,25.40
2022-08-19T02:16:58.853Z,25.17
2022-08-19T02:19:25.810Z,23.77
2022-08-19T02:21:53.322Z,25.43
2022-08-19T02:24:20.475Z,24.27
2022-08-19T02:26:47.419Z,25.27
2022-08-19T02:29:14.476Z,22.00
2022-08-19T02:31:41.728Z,24.70
2022-08-19T02:34:08.745Z,25.33
2022-08-19T02:36:35.743Z,23.53
2022-08-19T02:39:03.215Z,25.60
2022-08-19T02:41:33.361Z,25.53
2022-08-19T02:44:28.605Z,24.80
2022-08-19T02:46:51.802Z,22.80
2022-08-19T02:49:20.163Z,24.50
2022-08-19T02:51:47.707Z,25.60
2022-08-19T02:54:15.665Z,21.10
2022-08-19T02:56:44.460Z,27.60
2022-08-19T02:59:12.772Z,23.90
2022-08-19T03:01:42.049Z,27.90
2022-08-19T03:04:12.661Z,25.17
2022-08-19T03:06:42.308Z,23.90
2022-08-19T03:09:10.559Z,25.97
2022-08-19T03:11:38.588Z,30.33
2022-08-19T03:14:07.471Z,28.50
2022-08-19T03:16:47.242Z,23.87
2022-08-19T03:19:16.788Z,27.37
2022-08-19T03:21:47.664Z,28.40
2022-08-19T03:24:15.458Z,28.40
2022-08-19T03:26:45.473Z,26.70
2022-08-19T03:29:13.322Z,27.40
2022-08-19T03:31:51.026Z,27.70
2022-08-19T03:34:29.211Z,28.37
2022-08-19T03:36:58.745Z,27.77
2022-08-19T03:39:27.278Z,28.20
2022-08-19T03:42:32.135Z,29.17
2022-08-19T03:44:48.302Z,25.70
2022-08-19T03:47:18.010Z,27.87
2022-08-19T03:49:45.742Z,26.83
2022-08-19T03:52:12.993Z,26.83
2022-08-19T03:54:40.301Z,27.37
2022-08-19T03:57:07.715Z,25.73
2022-08-19T03:59:36.936Z,27.33
2022-08-19T04:02:10.026Z,28.20
2022-08-19T04:04:39.355Z,26.53
2022-08-19T04:07:06.612Z,29.23
2022-08-19T04:09:35.526Z,25.97
2022-08-19T04:12:02.614Z,27.13
2022-08-19T04:14:34.798Z,26.03
2022-08-19T04:17:05.617Z,25.33
2022-08-19T04:19:34.767Z,27.37
2022-08-19T04:22:01.954Z,26.07
2022-08-19T04:24:29.020Z,26.73
2022-08-19T04:26:56.880Z,29.70
2022-08-19T04:29:26.452Z,28.07
2022-08-19T04:31:55.703Z,27.20
2022-08-19T04:34:25.277Z,27.80
2022-08-19T04:36:54.515Z,27.13
2022-08-19T04:39:44.627Z,28.10
2022-08-19T04:42:31.258Z,26.03
2022-08-19T04:44:59.600Z,27.30
2022-08-19T04:47:47.101Z,26.57
2022-08-19T04:50:14.858Z,26.40
2022-08-19T04:52:45.219Z,22.90
2022-08-19T04:55:13.611Z,24.57
2022-08-19T04:57:41.284Z,27.20
2022-08-19T05:00:12.737Z,27.50
2022-08-19T05:02:40.037Z,29.53
2022-08-19T05:05:07.623Z,28.53
2022-08-19T05:07:35.127Z,28.50
2022-08-19T05:10:02.864Z,26.23
2022-08-19T05:12:30.012Z,30.40
2022-08-19T05:14:58.792Z,30.40
2022-08-19T05:17:29.013Z,28.10
2022-08-19T05:20:16.269Z,28.73
2022-08-19T05:22:46.158Z,28.10
2022-08-19T05:25:19.411Z,28.13
2022-08-19T05:27:46.685Z,27.03
2022-08-19T05:30:13.945Z,28.00
2022-08-19T05:32:41.601Z,27.50
2022-08-19T05:35:09.358Z,27.83
2022-08-19T05:37:36.377Z,29.33
2022-08-19T05:40:04.593Z,27.43
2022-08-19T05:42:31.708Z,25.80
2022-08-19T05:44:59.018Z,28.97
2022-08-19T05:47:26.287Z,26.40
2022-08-19T05:49:53.395Z,25.53
2022-08-19T05:52:25.968Z,26.13
2022-08-19T05:54:56.536Z,22.93
2022-08-19T05:57:25.004Z,23.43
2022-08-19T05:59:58.138Z,21.40
2022-08-19T06:02:27.591Z,21.50
2022-08-19T06:04:54.688Z,19.53
2022-08-19T06:07:21.836Z,18.87
2022-08-19T06:09:59.345Z,16.90
2022-08-19T06:12:35.505Z,15.30
2022-08-19T06:15:11.707Z,17.00
2022-08-19T06:17:38.760Z,15.03
2022-08-19T06:20:12.955Z,15.00
2022-08-19T06:22:45.519Z,15.47
2022-08-19T06:25:14.802Z,14.27
2022-08-19T06:28:11.357Z,18.50
2022-08-19T06:30:29.203Z,13.90
2022-08-19T06:32:56.162Z,13.83
2022-08-19T06:35:23.354Z,13.53
2022-08-19T06:37:50.515Z,15.20
2022-08-19T06:40:17.632Z,13.23
2022-08-19T06:42:54.701Z,14.07
2022-08-19T06:45:24.570Z,14.60
2022-08-19T06:47:56.929Z,14.27
2022-08-19T06:50:27.087Z,14.57
2022-08-19T06:52:55.347Z,14.20
2022-08-19T06:55:22.589Z,13.90
2022-08-19T06:57:52.019Z,13.50
2022-08-19T07:00:19.221Z,16.33
2022-08-19T07:02:52.139Z,16.80
2022-08-19T07:05:24.433Z,15.83
2022-08-19T07:07:51.718Z,15.20
2022-08-19T07:10:19.431Z,19.20
2022-08-19T07:12:47.627Z,20.03
2022-08-19T07:15:14.780Z,19.70
2022-08-19T07:17:42.203Z,21.00
2022-08-19T07:20:10.376Z,21.90
2022-08-19T07:22:41.294Z,21.53
2022-08-19T07:25:09.785Z,20.40
2022-08-19T07:27:38.108Z,21.47
2022-08-19T07:30:11.649Z,18.03
2022-08-19T07:32:40.011Z,19.07
2022-08-19T07:35:08.365Z,19.50
2022-08-19T07:37:36.582Z,20.90
2022-08-19T07:40:05.286Z,22.10
2022-08-19T07:42:32.461Z,22.10
2022-08-19T07:44:59.969Z,22.23
2022-08-19T07:47:47.655Z,23.40
2022-08-19T07:50:14.178Z,20.90
2022-08-19T07:52:41.697Z,24.10
2022-08-19T07:55:13.635Z,23.80
2022-08-19T07:57:58.675Z,24.07
2022-08-19T08:00:25.989Z,25.03
2022-08-19T08:02:55.593Z,24.80
2022-08-19T08:05:44.227Z,22.83
2022-08-19T08:08:31.316Z,22.60
2022-08-19T08:11:00.261Z,22.67
2022-08-19T08:13:28.094Z,22.77
2022-08-19T08:15:57.129Z,21.43
2022-08-19T08:18:27.633Z,22.83
2022-08-19T08:20:58.058Z,25.60
2022-08-19T08:23:29.698Z,23.00
2022-08-19T08:25:59.092Z,20.80
2022-08-19T08:28:29.630Z,19.70
2022-08-19T08:30:58.054Z,21.13
2022-08-19T08:33:34.413Z,20.77
2022-08-19T08:36:05.995Z,19.40
2022-08-19T08:38:39.131Z,19.33
2022-08-19T08:41:45.605Z,18.03
2022-08-19T08:44:21.996Z,16.27
2022-08-19T08:47:03.622Z,16.60
2022-08-19T08:49:40.740Z,14.87
2022-08-19T08:52:20.041Z,15.00
2022-08-19T08:54:55.392Z,14.20
2022-08-19T08:57:44.814Z,15.07
2022-08-19T09:00:17.946Z,15.47
2022-08-19T09:02:50.530Z,14.03
2022-08-19T09:05:22.277Z,12.10
2022-08-19T09:07:49.598Z,12.93
2022-08-19T09:10:44.201Z,13.23
2022-08-19T09:13:20.918Z,13.70
2022-08-19T09:16:21.592Z,14.63
2022-08-19T09:19:01.855Z,15.10
2022-08-19T09:21:33.205Z,16.13
2022-08-19T09:24:01.012Z,15.00
2022-08-19T09:26:47.509Z,17.07
2022-08-19T09:29:19.419Z,16.07
2022-08-19T09:31:51.037Z,15.83
2022-08-19T09:34:21.021Z,15.37
2022-08-19T09:36:53.416Z,15.90
2022-08-19T09:39:20.384Z,18.33
2022-08-19T09:41:49.136Z,18.10
2022-08-19T09:44:16.986Z,17.30
2022-08-19T09:46:48.032Z,18.10
2022-08-19T09:49:18.455Z,18.80
2022-08-19T09:51:51.149Z,17.50
2022-08-19T09:54:23.582Z,18.00
2022-08-19T09:56:53.529Z,16.30
2022-08-19T09:59:20.659Z,14.40
2022-08-19T10:01:47.820Z,12.87
2022-08-19T10:04:20.084Z,14.03
2022-08-19T10:06:53.516Z,13.07
2022-08-19T10:09:26.347Z,14.20
2022-08-19T10:12:03.919Z,13.90
2022-08-19T10:14:32.207Z,12.10
2022-08-19T10:17:01.284Z,11.70
2022-08-19T10:19:36.866Z,11.70
2022-08-19T10:22:06.337Z,11.53
2022-08-19T10:24:39.283Z,10.47
2022-08-19T10:27:08.869Z,11.00
2022-08-19T10:29:35.897Z,10.47
2022-08-19T10:32:09.709Z,9.97
2022-08-19T10:34:48.354Z,9.40
2022-08-19T10:37:23.743Z,8.97
2022-08-19T10:39:55.941Z,8.33
2022-08-19T10:42:22.928Z,7.50
2022-08-19T10:44:49.908Z,6.50
2022-08-19T10:47:25.869Z,6.10
2022-08-19T10:50:13.570Z,6.40
2022-08-19T10:52:49.307Z,5.87
2022-08-19T10:55:41.248Z,5.10
2022-08-19T10:58:14.094Z,4.80
2022-08-19T11:00:41.866Z,5.80
2022-08-19T11:03:09.588Z,5.73
2022-08-19T11:05:40.450Z,5.33
2022-08-19T11:08:22.537Z,7.77
2022-08-19T11:10:51.788Z,7.73
2022-08-19T11:13:18.867Z,8.13
2022-08-19T11:15:48.347Z,9.10
2022-08-19T11:18:18.510Z,9.60
2022-08-19T11:20:45.603Z,11.03
2022-08-19T11:23:12.739Z,9.40
2022-08-19T11:25:40.332Z,10.60
2022-08-19T11:28:07.263Z,9.73
2022-08-19T11:30:35.143Z,12.17
2022-08-19T11:33:02.091Z,10.67
2022-08-19T11:35:29.328Z,10.50
2022-08-19T11:37:58.926Z,12.53
2022-08-19T11:40:25.906Z,14.17
2022-08-19T11:42:58.633Z,13.47
2022-08-19T11:45:28.264Z,14.00
2022-08-19T11:47:56.239Z,15.00
2022-08-19T11:50:24.627Z,16.53
2022-08-19T11:52:55.605Z,15.03
2022-08-19T11:55:24.650Z,17.27
2022-08-19T11:57:51.778Z,15.70
2022-08-19T12:00:19.398Z,15.37
2022-08-19T12:02:47.075Z,17.43
2022-08-19T12:05:14.313Z,16.37
2022-08-19T12:07:42.462Z,17.10
2022-08-19T12:10:10.692Z,19.53
2022-08-19T12:12:43.621Z,16.73
2022-08-19T12:15:11.936Z,18.50
2022-08-19T12:17:39.290Z,19.63
2022-08-19T12:20:07.839Z,20.63
2022-08-19T12:22:35.993Z,19.37
2022-08-19T12:25:03.200Z,21.90
2022-08-19T12:27:40.170Z,23.60
2022-08-19T12:30:11.055Z,23.00
2022-08-19T12:32:38.270Z,23.80
2022-08-19T12:35:06.223Z,27.23
2022-08-19T12:37:33.392Z,25.57
2022-08-19T12:40:00.681Z,24.00
2022-08-19T12:42:28.074Z,21.83
2022-08-19T12:44:55.130Z,22.20
2022-08-19T12:47:22.243Z,24.10
2022-08-19T12:49:54.063Z,27.00
2022-08-19T12:52:24.114Z,24.43
2022-08-19T12:54:54.710Z,28.03
2022-08-19T12:57:31.480Z,23.17
2022-08-19T13:00:14.503Z,29.33
2022-08-19T13:02:47.512Z,26.60
2022-08-19T13:05:17.750Z,21.33
2022-08-19T13:07:44.961Z,23.33
2022-08-19T13:10:16.422Z,24.43
2022-08-19T13:12:45.363Z,24.80
2022-08-19T13:15:16.900Z,27.70
2022-08-19T13:17:45.434Z,24.97
2022-08-19T13:20:12.544Z,27.70
2022-08-19T13:22:40.128Z,25.73
2022-08-19T13:25:08.582Z,25.07
2022-08-19T13:27:36.771Z,26.73
2022-08-19T13:30:24.007Z,26.57
2022-08-19T13:33:09.808Z,26.67
2022-08-19T13:35:36.797Z,26.17
2022-08-19T13:38:05.880Z,28.60
2022-08-19T13:40:41.345Z,32.50
2022-08-19T13:43:17.669Z,39.10
2022-08-19T13:45:54.846Z,40.20
2022-08-19T13:48:22.562Z,35.83
2022-08-19T13:50:49.551Z,35.87
2022-08-19T13:53:17.561Z,36.90
2022-08-19T13:55:45.554Z,37.37
2022-08-19T13:58:13.578Z,37.97
2022-08-19T14:00:44.625Z,36.97
2022-08-19T14:03:12.374Z,36.23
2022-08-19T14:05:40.170Z,34.00
2022-08-19T14:08:07.586Z,39.10
2022-08-19T14:10:35.588Z,34.87
2022-08-19T14:13:04.298Z,35.60
2022-08-19T14:15:32.209Z,35.37
2022-08-19T14:17:59.383Z,36.77
2022-08-19T14:20:26.851Z,38.13
2022-08-19T14:22:55.729Z,37.10
2022-08-19T14:25:29.107Z,34.30
2022-08-19T14:27:56.685Z,38.13
2022-08-19T14:30:30.349Z,40.03
2022-08-19T14:33:02.256Z,36.73
2022-08-19T14:35:31.187Z,38.53
2022-08-19T14:37:59.250Z,37.53
2022-08-19T14:40:28.916Z,39.27
2022-08-19T14:43:00.275Z,37.00
2022-08-19T14:45:29.702Z,37.67
2022-08-19T14:47:56.972Z,38.47
2022-08-19T14:50:24.003Z,41.07
2022-08-19T14:52:52.782Z,38.63
2022-08-19T14:55:19.869Z,38.03
2022-08-19T14:57:46.867Z,38.23
2022-08-19T15:00:14.988Z,33.77
2022-08-19T15:02:45.133Z,37.57
2022-08-19T15:05:13.686Z,34.90
2022-08-19T15:07:41.900Z,35.20
2022-08-19T15:10:11.691Z,37.33
2022-08-19T15:12:43.612Z,35.77
2022-08-19T15:15:16.252Z,33.93
2022-08-19T15:17:46.563Z,34.93
2022-08-19T15:20:20.719Z,33.30
2022-08-19T15:22:47.989Z,39.20
2022-08-19T15:25:17.920Z,36.37
2022-08-19T15:27:44.970Z,35.40
2022-08-19T15:30:12.908Z,35.67
2022-08-19T15:32:40.192Z,34.80
2022-08-19T15:35:08.490Z,35.07
2022-08-19T15:37:37.673Z,36.10
2022-08-19T15:40:09.611Z,36.37
2022-08-19T15:42:38.710Z,37.80
2022-08-19T15:45:07.082Z,37.87
2022-08-19T15:47:35.192Z,38.93
2022-08-19T15:50:21.428Z,37.30
2022-08-19T15:52:53.690Z,37.13
2022-08-19T15:55:31.347Z,38.47
2022-08-19T15:58:28.818Z,36.93
2022-08-19T16:01:21.356Z,34.37
2022-08-19T16:04:11.087Z,35.03
2022-08-19T16:06:55.002Z,33.10
2022-08-19T16:09:27.470Z,34.87
2022-08-19T16:12:05.155Z,33.10
2022-08-19T16:14:34.091Z,29.93
2022-08-19T16:17:01.940Z,30.10
2022-08-19T16:19:29.020Z,31.03
2022-08-19T16:21:57.225Z,32.07
2022-08-19T16:24:27.067Z,30.37
2022-08-19T16:26:55.032Z,32.23
2022-08-19T16:29:33.554Z,29.93
2022-08-19T16:32:07.006Z,27.70
2022-08-19T16:34:34.731Z,30.10
2022-08-19T16:37:02.021Z,29.00
2022-08-19T16:39:29.165Z,26.70
2022-08-19T16:41:56.174Z,28.53
2022-08-19T16:44:23.211Z,29.30
2022-08-19T16:46:58.414Z,26.27
2022-08-19T16:49:54.573Z,25.93
2022-08-19T16:52:16.170Z,27.23
2022-08-19T16:54:44.022Z,25.80
2022-08-19T16:57:13.040Z,25.37
2022-08-19T16:59:42.563Z,24.37
2022-08-19T17:02:17.988Z,26.40
2022-08-19T17:04:57.681Z,27.03
2022-08-19T17:07:32.150Z,27.83
2022-08-19T17:10:01.639Z,29.50
2022-08-19T17:12:30.468Z,28.20
2022-08-19T17:15:03.975Z,27.37
2022-08-19T17:17:31.804Z,26.53
2022-08-19T17:20:00.509Z,27.87
2022-08-19T17:22:27.916Z,19.53
2022-08-19T17:24:56.296Z,24.50
2022-08-19T17:27:32.501Z,29.50
2022-08-19T17:30:04.296Z,28.20
2022-08-19T17:32:35.011Z,25.97
2022-08-19T17:35:04.126Z,28.43
2022-08-19T17:37:31.163Z,27.90
2022-08-19T17:39:58.360Z,27.50
2022-08-19T17:42:25.448Z,27.70
2022-08-19T17:44:52.621Z,26.37
2022-08-19T17:47:21.174Z,27.90
2022-08-19T17:49:48.471Z,25.43
2022-08-19T17:52:15.566Z,28.50
2022-08-19T17:54:42.684Z,26.90
2022-08-19T17:57:10.046Z,26.00
2022-08-19T17:59:37.647Z,30.17
2022-08-19T18:02:14.678Z,26.30
2022-08-19T18:04:45.549Z,27.50
2022-08-19T18:07:18.430Z,27.50
2022-08-19T18:09:59.144Z,28.33
2022-08-19T18:12:29.187Z,24.77
2022-08-19T18:14:58.631Z,25.93
2022-08-19T18:17:33.053Z,28.77
2022-08-19T18:20:00.453Z,27.93
2022-08-19T18:22:31.556Z,28.50
2022-08-19T18:25:00.880Z,29.73
2022-08-19T18:27:29.169Z,28.50
2022-08-19T18:29:59.816Z,27.40
2022-08-19T18:32:34.933Z,29.50
2022-08-19T18:35:06.566Z,27.20
2022-08-19T18:37:33.623Z,28.27
2022-08-19T18:40:19.134Z,26.37
2022-08-19T18:43:05.160Z,30.27
2022-08-19T18:45:54.554Z,31.73
2022-08-19T18:48:41.205Z,30.10
2022-08-19T18:51:11.626Z,31.90
2022-08-19T18:53:41.234Z,32.87
2022-08-19T18:56:10.203Z,29.33
2022-08-19T18:58:38.326Z,30.77
2022-08-19T19:01:17.699Z,36.17
2022-08-19T19:03:50.661Z,34.63
2022-08-19T19:06:22.687Z,35.50
2022-08-19T19:08:51.576Z,37.73
2022-08-19T19:11:23.830Z,39.33
2022-08-19T19:13:51.039Z,31.60
2022-08-19T19:16:22.391Z,38.33
2022-08-19T19:18:52.624Z,37.80
2022-08-19T19:21:23.087Z,36.27
2022-08-19T19:23:50.715Z,39.30
2022-08-19T19:26:18.055Z,34.73
2022-08-19T19:28:46.519Z,36.30
2022-08-19T19:31:18.005Z,39.07
2022-08-19T19:33:45.774Z,30.53
2022-08-19T19:36:12.939Z,36.30
2022-08-19T19:38:48.040Z,39.77
2022-08-19T19:41:24.999Z,35.63
2022-08-19T19:44:23.209Z,36.50
2022-08-19T19:46:45.314Z,34.53
2022-08-19T19:49:13.611Z,35.80
2022-08-19T19:51:41.859Z,33.67
2022-08-19T19:54:13.904Z,33.03
2022-08-19T19:56:45.060Z,35.73
2022-08-19T19:59:12.186Z,35.40
2022-08-19T20:01:39.576Z,34.53
2022-08-19T20:04:12.176Z,34.07
2022-08-19T20:06:39.675Z,32.83
2022-08-19T20:09:10.840Z,34.50
2022-08-19T20:11:47.604Z,34.73
2022-08-19T20:14:20.462Z,34.90
2022-08-19T20:16:49.563Z,33.47
2022-08-19T20:19:20.823Z,32.70
2022-08-19T20:21:51.374Z,33.60
2022-08-19T20:24:22.482Z,30.53
2022-08-19T20:26:50.371Z,31.97
2022-08-19T20:29:40.079Z,31.37
2022-08-19T20:32:10.257Z,31.73
2022-08-19T20:34:37.798Z,30.63
2022-08-19T20:37:05.060Z,29.77
2022-08-19T20:39:32.229Z,29.23
2022-08-19T20:42:00.746Z,30.37
2022-08-19T20:44:27.944Z,32.03
2022-08-19T20:46:57.484Z,32.13
2022-08-19T20:49:26.998Z,30.80
2022-08-19T20:51:56.030Z,30.33
2022-08-19T20:54:24.134Z,28.40
2022-08-19T20:56:51.825Z,31.97
2022-08-19T20:59:20.151Z,31.73
2022-08-19T21:01:47.881Z,32.87
2022-08-19T21:04:15.023Z,30.00
2022-08-19T21:06:45.372Z,28.60
2022-08-19T21:09:13.775Z,30.20
2022-08-19T21:11:40.937Z,28.60
2022-08-19T21:14:08.418Z,31.30
2022-08-19T21:16:35.556Z,31.50
2022-08-19T21:19:02.697Z,28.23
2022-08-19T21:21:29.657Z,31.90
2022-08-19T21:23:56.961Z,28.67
2022-08-19T21:26:25.242Z,30.17
2022-08-19T21:28:52.204Z,29.00
2022-08-19T21:31:19.558Z,27.40
2022-08-19T21:33:46.562Z,28.30
2022-08-19T21:36:13.611Z,29.27
2022-08-19T21:38:41.354Z,29.70
2022-08-19T21:41:08.435Z,25.63
2022-08-19T21:43:36.850Z,28.80
2022-08-19T21:46:04.270Z,24.80
2022-08-19T21:48:31.255Z,29.37
2022-08-19T21:50:58.212Z,28.93
2022-08-19T21:53:25.267Z,26.10
2022-08-19T21:55:58.699Z,28.83
2022-08-19T21:58:28.097Z,25.03
2022-08-19T22:01:05.661Z,27.30
2022-08-19T22:03:37.489Z,28.90
2022-08-19T22:06:05.246Z,26.90
2022-08-19T22:08:32.513Z,27.37
2022-08-19T22:10:59.472Z,29.60
2022-08-19T22:13:26.990Z,27.53
2022-08-19T22:15:55.236Z,30.40
2022-08-19T22:18:22.249Z,29.80
2022-08-19T22:20:50.210Z,28.67
2022-08-19T22:23:17.214Z,28.77
2022-08-19T22:25:46.557Z,26.80
2022-08-19T22:28:18.845Z,28.80
2022-08-19T22:30:48.866Z,30.23
2022-08-19T22:33:19.503Z,27.57
2022-08-19T22:35:47.465Z,28.97
2022-08-19T22:38:16.130Z,29.70
2022-08-19T22:40:47.499Z,25.90
2022-08-19T22:43:26.703Z,29.13
2022-08-19T22:45:55.268Z,28.97
2022-08-19T22:48:25.076Z,30.13
2022-08-19T22:51:11.502Z,29.00
2022-08-19T22:53:40.596Z,29.07
2022-08-19T22:56:14.925Z,30.23
2022-08-19T22:58:42.517Z,29.50
2022-08-19T23:01:24.886Z,25.17
2022-08-19T23:03:56.548Z,27.57
2022-08-19T23:06:23.595Z,31.40
2022-08-19T23:09:00.050Z,29.70
2022-08-19T23:11:27.058Z,25.10
2022-08-19T23:13:54.087Z,31.67
2022-08-19T23:16:21.061Z,26.70
2022-08-19T23:18:48.246Z,30.90
2022-08-19T23:21:16.587Z,30.00
2022-08-19T23:23:43.758Z,29.03
2022-08-19T23:26:11.865Z,32.07
2022-08-19T23:28:57.982Z,31.60
2022-08-19T23:31:26.887Z,28.73
2022-08-19T23:33:53.882Z,31.53
2022-08-19T23:36:22.545Z,34.23
2022-08-19T23:38:52.265Z,29.87
2022-08-19T23:41:21.349Z,31.17
2022-08-19T23:43:48.428Z,30.60
2022-08-19T23:46:27.499Z,31.40
2022-08-19T23:48:56.326Z,30.93
2022-08-19T23:51:23.359Z,29.83
2022-08-19T23:53:50.409Z,30.03
2022-08-19T23:56:17.453Z,29.83
2022-08-19T23:58:44.463Z,29.83
